Timeline UpdatesTrip UpdatesNews PostsPvt Posts♥♥Travel TipsAdmin PostsConv PostsFollowed PostsChat RequestsBlog PostsPNR Posts

Disclaimer
Search
 
 
Sat Nov 1, 2014 10:20:18 ISTHomeTrainsΣChainsAtlasPNRForumGalleryNewsFAQTripsMembersLoginFeedback
No Recent News for this Train
Other Trains in the News **new
Latest...
.
Fri Feb 28, 2014 (07:32PM)
⇐ Return Journey: Train# 19216

19215/Saurashtra Express

Time-Table HAS CHANGED.
Sep 03 2014 (10:13PM)
Change Departure Station:
Change Arrival Station:
Post a Train Travel TipPost a Train Travel Tip **new
Post a Comment/Question/Picture/VideoPost a Comment/Question/Picture/Video
Pantry/Catering
✕ NO Pantry Car
✓ Catering Avbl
RSA - Rake Sharing
Rake/Coach Composition
ENG - SLR - GEN - GEN - GEN - FC1 - B1 - S4 - S3 - S2 - S1 - LD - GEN - RMS - GEN - GEN - GEN - SLR - Milk van
Loco
BCT-ADI: BRC WAP-4/ ADI-PBR: VTA WDM-3A
News    PNR    Forum    Time-Table    Availability    Fare Chart    Map    Arr/Dep History    Trips    Gallery    ΣChains    X/O    Timeline    
Travel Time: 11h 40m    23 halts    Distance: 508 km    Avg Speed: 43 km/hr
Type: Mail/Express
Zone: WR/Western
Departs @ 18:10 (Avg 11m late)
Platform# ???
SMTWTFS
Nadiad Junction/ND 
Arrives @ 05:50 +1 night (Avg 4m early)
Platform# 1
SMTWTFS
Porbandar/PBR 

23 halts. 75 intermediate Stations between Nadiad Junction and Porbandar

Show ALL intermediate Stations  Show Old Time-Table

#TrkCodeStation NameX/OArrivesAvgDepartsAvgHaltPFDay#KmSpeedElevZoneAddress
1/==/BCTMumbai Central (9)  -08:20+031-447.1363mWRMumbai 400008, Maharashtra
2/==/DDRMumbai Dadar Western (6)  08:30+408:32+42m31-441.1556mWRMumbai, Maharashtra
3/==/BVIMumbai Borivali (8)X  09:00 08:58+709:02+62 4m41-417.45019mWRMumbai - 400092, Maharashtra
4/==/BSRVasai Road (7)  09:25 09:23+409:27+22 4m41-400.0467mWRVasai 401202, Maharashtra
5/==/VRVirar (8)  09:38+309:40+42m31-391.6656mWRDist. Palghar, Maharashtra
6/==/SAHSaphale (2)X  09:55+809:57+82m11-375.3748mWRDist. Palghar, Maharashtra
7/==/PLGPalghar (3)X  10:09+910:11+92m--1-360.46819mWRPalghar, Maharashtra
8/==/BORBoisar (3)X  10:21+1010:23+102m21-349.26217mWRBoisar Tel.no-02525-266626, Maharashtra
9/==/DRDDahanu Road (5)X  10:43 10:44+910:45 10:46+92m--1-327.57412mWRDahanu, Maharashtra
10/==/GVDGholvad (4)X  10:55+1010:57+92m--1-316.36914mWRGholvad, Maharashtra
11/==/UBRUmbargam Road (3)  11:08 11:05+1011:10 11:07+102m11-307.14030mWRUmbergaon, Gujarat
12/==/SJNSanjan (3)X  11:19 11:15+1011:21 11:17+102m--1-301.87722mWRSanjan, Gujarat
13/==/BLDBhilad (3)X11:34 11:26+1211:36 11:29+112 3m--1-290.26233mWRBhilad, Gujarat
14/==/VAPIVapi (3)X  11:40+1011:42+112m11-278.94827mWRVapi, Gujarat
15/==/UVDUdvada (3)X  11:54+911:56+92m--1-269.36018mWRUdvada, Gujarat
16/==/PADPardi (3)  12:02+912:04+92m--1-263.44319mWRValsad, Gujarat
17/==/BLValsad (3)X  12:23 12:19+512:25 12:24+82 5m11-252.76015mWRValsad, Gujarat
18/==/BIMBilimora Junction (4)X  12:45 12:42+612:47 12:44+62m11-234.85611mWRBilimora, Gujarat
19/==/AMLAmalsad (3)  12:53 12:50+712:55 12:52+72m--1-229.29412mWRAmalsad, Gujarat
20/==/NVSNavsari (3)X  13:08 13:02+1213:10 13:07+102 5m11-213.65114mWRNavsari, Gujarat
21/==/MRLMaroli (3)X  13:21 13:17+913:23 13:20+92 3m11-205.16415mWRMaroli, Gujarat
22/==/UDNUdhna Junction (3)XO  13:40 13:36+1413:42 13:38+162m11-188.0916mWRUdhna 394210, Gujarat
23/==/STSurat (4)X  14:10 14:05+214:15+25 10m11-184.05919mWRSurat 395001, Gujarat
24/==/SYNSayan (3)  14:29+1014:31+92m--1-170.38521mWRSayan Satellite town, Gujarat
25/==/KIMKim (2)X  14:38+1114:40+102m--1-160.45818mWRNH 8, Gujarat
26/==/KSBKosamba Junction (3)X  14:48+1214:50+112m--1-152.67130mWRKosamba, Gujarat
27/==/PAOPanoli (3)  14:57+1314:59+122m--1-144.46929mWRPanoli, Gujarat
28/==/AKVAnkleshwar Junction (4)  15:08+1315:10+122m11-134.04319mWRAnkleshwar, Gujarat
29/==/BHBharuch Junction (5)  15:23+1215:25+122m31-124.76619mWRBharuch, Gujarat
30/==/NIUNabipur (3)X  15:36+1615:38+152m--1-112.68024mWRNabipur, Gujarat
31/==/PLJPalej (4)X  15:48+1615:50+152m--1-99.38329mWRPalej, Gujarat
32/==/MYGMiyagam Karjan (2)  16:01+1716:03+172m21-84.07029mWRKarjan, Gujarat
33/==/ITAItola (4)  16:13+1916:15+182m--1-72.44827mWRNational Highway 8 Vadodara, Gujarat
34/==/VSVishvamitri (4)XO  16:34+1616:36+172m--1-57.2930mWRVadodara, Gujarat
35/==/BRCVadodara Junction (7)X  16:55+1017:00+125m41-54.25036mWRVadodara 390005, Gujarat
36/==/VDAVasad Junction (3)X  17:24+917:26+102m21-34.05240mWRVasad, Gujarat
37/==/ANNDAnand Junction (6)  17:44+1317:46+132m--1-18.45644mWRAnand, Gujarat
38/--/KBRVKanjari Boriyavi Junction (4)X  17:54+817:56+72m--1-11.05539mWRKanjari, Gujarat
39/==/NDNadiad Junction (4)»O  18:08+1018:10+112m--10.05037mWRNadiad, Gujarat
40/==/MHDMahemdavad Kheda Road (4)XO  18:31+418:33+32m3117.65737mWRMahemdavad, Gujarat
41/==/BJDBarejadi Nandej (3)O  18:45+418:47+32m--128.93542mWRBareja-Barejadi Rd, Gujarat
42/==/MANManinagar (2)XO  19:21 19:10+019:23 19:12+02m1142.4750mWRAhmadabad, Gujarat
43/==/ADIAhmedabad Junction (12)XO19:40+820:00+1120m6145.61951mWRAhmedabad, Gujarat
44/==/SBTSabarmati Junction (3) new halt!!  20:17+1320:19+132m--151.03852mWRAhmedabad, Gujarat
45/==|CLDYChandlodiya  20:28+1320:30+132m--156.66859mWRAhmedabad, Gujarat
46|==|ABDAmbli RoadX  20:35+1320:37+132m--162.37050mWRAhmedabad, Gujarat
47|==|SAUSanand  20:47+1620:49+162m--173.95840mWRSanand, Gujarat
48|==|CEChharodiX  21:00+1721:02+172m--184.67029mWRSH 17, Gujarat
49|==|JKAJakhvadaX  21:14+1821:16+182m--198.63031mWRState Highway 17, Gujarat
50|==|VGViramgam Junction (5)X  21:41+721:43+92m11110.95129mWRViramgam, Gujarat
51!=-|SUNRSurendranagar Junction (4)  22:58 23:00+1823:00 23:05+172 5m11176.56872mWRSurendra Nagar, Gujarat
52|--|THANThan Junction (3)  23:45 23:47+2123:47 23:49+222m11224.261138mWRThangadh, Gujarat
53|--|WKRWankaner Junction (4)X  00:13 00:15+2400:15 00:20+232 5m--2250.84387mWRWankaner, Gujarat
54|--|RJTRajkot Junction (5)X  01:18+901:24+126m32292.565128mWRRajkot, Gujarat
55|--|HAPAHapa (3)X  02:32 02:34+702:34 02:36+82m--2368.44316mWRJamnagar, Gujarat
56|--|JAMJamnagar (2)X  02:46 02:48+702:48 02:53+52 5m--2377.15014mWRJamnagar, Gujarat
57|--|LPJLalpur Jam  03:44 03:46+903:46 03:47+122 1m--2421.15776mWRLalpur, Gujarat
58|--|GOPGop Jam  04:03 04:05+1104:05 04:06+112 1m--2438.262126mWRState Highway 27, Gujarat
59|--|BNVDBhanvad  04:22 04:24+1104:24 04:25+112 1m--2456.65755mWRBhanvad, Gujarat
60|--|WSJWansjaliya  04:44+1204:45+131m--2474.86055mWRTarsai - Vansjaliya, Gujarat
61|--|SKRSakhpur  04:50 04:52-04:52 04:53-2 1m--2481.83055mWRto railway station, Gujarat
62|--|RWORanavav  05:18 05:20+405:20 05:21+72 1m--2495.12837mWRRanavav, Gujarat
63|--|PBRPorbandar•  05:50-4-12508.4-7mWRPorbandar, Gujarat
Scroll to Top
Scroll to Bottom